createdAt,value
2019-04-22T00:01:58.181Z,4.37
2019-04-22T00:04:42.100Z,4.87
2019-04-22T00:07:25.491Z,5.27
2019-04-22T00:10:03.057Z,5.30
2019-04-22T00:14:57.068Z,5.67
2019-04-22T00:17:38.656Z,5.00
2019-04-22T00:25:17.036Z,4.40
2019-04-22T00:30:17.810Z,4.20
2019-04-22T00:32:47.655Z,4.13
2019-04-22T00:35:18.159Z,3.47
2019-04-22T00:37:56.979Z,4.00
2019-04-22T00:40:30.973Z,4.03
2019-04-22T00:45:34.456Z,3.70
2019-04-22T00:48:09.222Z,4.20
2019-04-22T00:50:37.199Z,3.53
2019-04-22T00:53:09.304Z,3.57
2019-04-22T00:55:56.922Z,3.70
2019-04-22T00:58:29.325Z,3.57
2019-04-22T01:01:04.731Z,4.70
2019-04-22T01:03:34.183Z,4.07
2019-04-22T01:06:03.493Z,4.30
2019-04-22T01:08:40.582Z,5.00
2019-04-22T01:11:13.414Z,3.90
2019-04-22T01:13:38.359Z,3.40
2019-04-22T01:16:12.783Z,3.60
2019-04-22T01:18:45.809Z,3.73
2019-04-22T01:21:23.169Z,3.80
2019-04-22T01:23:47.642Z,4.20
2019-04-22T01:26:15.913Z,4.00
2019-04-22T01:28:46.125Z,4.83
2019-04-22T01:31:10.277Z,4.33
2019-04-22T01:33:43.867Z,4.10
2019-04-22T01:36:30.279Z,4.23
2019-04-22T01:39:02.367Z,4.73
2019-04-22T01:44:27.618Z,4.40
2019-04-22T01:46:47.751Z,4.15
2019-04-22T01:49:15.940Z,4.03
2019-04-22T01:51:58.389Z,3.80
2019-04-22T01:56:52.575Z,4.20
2019-04-22T01:59:19.751Z,3.85
2019-04-22T02:01:55.174Z,3.80
2019-04-22T02:04:44.458Z,3.77
2019-04-22T02:07:01.820Z,3.60
2019-04-22T02:09:56.143Z,3.95
2019-04-22T02:12:25.890Z,3.83
2019-04-22T02:15:00.748Z,3.83
2019-04-22T02:20:05.089Z,3.92
2019-04-22T02:23:16.036Z,3.22
2019-04-22T02:25:36.532Z,3.92
2019-04-22T02:28:05.032Z,3.47
2019-04-22T02:30:56.594Z,3.90
2019-04-22T02:33:25.472Z,3.33
2019-04-22T02:35:57.488Z,3.15
2019-04-22T02:38:34.467Z,3.87
2019-04-22T02:41:08.748Z,3.75
2019-04-22T02:43:33.981Z,3.65
2019-04-22T02:46:13.239Z,4.10
2019-04-22T02:48:45.939Z,3.35
2019-04-22T02:51:02.483Z,4.03
2019-04-22T02:54:11.636Z,3.70
2019-04-22T02:56:15.689Z,3.25
2019-04-22T02:58:46.808Z,3.83
2019-04-22T03:01:18.252Z,4.28
2019-04-22T03:03:50.590Z,3.55
2019-04-22T03:08:46.052Z,4.15
2019-04-22T03:11:19.188Z,4.20
2019-04-22T03:13:59.949Z,3.65
2019-04-22T03:16:26.545Z,3.83
2019-04-22T03:19:22.858Z,3.95
2019-04-22T03:21:27.042Z,3.98
2019-04-22T03:24:18.051Z,3.92
2019-04-22T03:26:34.476Z,4.12
2019-04-22T03:29:15.112Z,4.45
2019-04-22T03:32:17.621Z,3.77
2019-04-22T03:35:14.148Z,4.08
2019-04-22T03:44:39.100Z,3.65
2019-04-22T03:54:46.263Z,3.20
2019-04-22T03:59:48.122Z,3.80
2019-04-22T04:02:38.829Z,4.15
2019-04-22T04:07:45.720Z,4.20
2019-04-22T04:10:02.233Z,3.72
2019-04-22T04:12:37.797Z,3.70
2019-04-22T04:15:13.975Z,4.15
2019-04-22T04:17:37.405Z,3.33
2019-04-22T04:20:18.668Z,4.17
2019-04-22T04:22:54.137Z,4.00
2019-04-22T04:30:19.016Z,4.20
2019-04-22T04:32:52.508Z,3.90
2019-04-22T04:43:08.300Z,4.40
2019-04-22T04:48:02.470Z,4.17
2019-04-22T04:55:40.574Z,4.47
2019-04-22T04:58:36.813Z,4.17
2019-04-22T05:03:20.973Z,4.87
2019-04-22T05:05:47.809Z,4.95
2019-04-22T05:08:31.320Z,4.20
2019-04-22T05:11:16.286Z,4.67
2019-04-22T05:13:25.782Z,3.80
2019-04-22T05:16:10.861Z,4.42
2019-04-22T05:18:29.389Z,4.40
2019-04-22T05:21:09.294Z,4.22
2019-04-22T05:23:30.029Z,4.83
2019-04-22T05:26:04.179Z,4.50
2019-04-22T05:28:33.486Z,4.10
2019-04-22T05:31:08.653Z,4.15
2019-04-22T05:33:34.796Z,4.40
2019-04-22T05:36:12.715Z,4.17
2019-04-22T05:38:46.300Z,4.30
2019-04-22T05:41:16.095Z,4.10
2019-04-22T05:43:50.109Z,5.20
2019-04-22T05:46:19.323Z,5.15
2019-04-22T05:48:54.235Z,5.08
2019-04-22T05:51:29.495Z,5.08
2019-04-22T05:53:57.473Z,5.35
2019-04-22T05:56:32.752Z,5.10
2019-04-22T06:04:05.267Z,4.70
2019-04-22T06:06:44.946Z,5.12
2019-04-22T06:09:10.438Z,5.40
2019-04-22T06:11:32.223Z,5.10
2019-04-22T06:14:10.300Z,4.30
2019-04-22T06:16:53.178Z,5.13
2019-04-22T06:19:31.733Z,5.13
2019-04-22T06:21:49.994Z,5.27
2019-04-22T06:24:35.477Z,4.60
2019-04-22T06:27:01.539Z,5.03
2019-04-22T06:29:26.729Z,4.73
2019-04-22T06:32:17.538Z,4.60
2019-04-22T06:37:07.380Z,4.90
2019-04-22T06:42:08.042Z,4.57
2019-04-22T06:44:43.700Z,3.77
2019-04-22T06:47:23.676Z,4.40
2019-04-22T06:49:48.281Z,4.17
2019-04-22T06:52:18.218Z,4.20
2019-04-22T06:54:56.142Z,4.40
2019-04-22T06:57:25.450Z,4.53
2019-04-22T06:59:58.780Z,3.83
2019-04-22T07:02:32.100Z,3.63
2019-04-22T07:05:00.954Z,3.73
2019-04-22T07:07:34.539Z,3.57
2019-04-22T07:10:06.392Z,3.80
2019-04-22T07:12:34.660Z,4.03
2019-04-22T07:15:21.860Z,4.63
2019-04-22T07:17:44.071Z,3.40
2019-04-22T07:20:17.531Z,3.33
2019-04-22T07:22:45.311Z,3.60
2019-04-22T07:25:15.982Z,3.70
2019-04-22T07:27:55.126Z,3.70
2019-04-22T07:30:23.557Z,3.73
2019-04-22T07:35:29.198Z,3.60
2019-04-22T07:38:07.556Z,3.53
2019-04-22T07:40:38.928Z,3.67
2019-04-22T07:43:14.931Z,3.97
2019-04-22T07:46:56.495Z,4.20
2019-04-22T07:49:26.859Z,3.27
2019-04-22T07:51:58.782Z,3.30
2019-04-22T07:54:26.300Z,3.70
2019-04-22T07:57:08.952Z,3.77
2019-04-22T07:59:37.164Z,3.43
2019-04-22T08:02:04.779Z,3.50
2019-04-22T08:07:12.632Z,3.57
2019-04-22T08:09:47.514Z,4.23
2019-04-22T08:12:16.677Z,3.80
2019-04-22T08:14:45.561Z,3.27
2019-04-22T08:19:59.255Z,2.87
2019-04-22T08:22:21.058Z,2.97
2019-04-22T08:24:57.491Z,2.70
2019-04-22T08:27:31.860Z,3.37
2019-04-22T08:30:07.334Z,2.70
2019-04-22T08:32:34.968Z,2.60
2019-04-22T08:35:04.635Z,2.03
2019-04-22T08:37:47.597Z,2.60
2019-04-22T08:40:12.661Z,2.00
2019-04-22T08:42:53.536Z,2.30
2019-04-22T08:45:18.239Z,1.90
2019-04-22T08:48:01.663Z,2.27
2019-04-22T08:50:20.170Z,2.60
2019-04-22T08:52:58.709Z,2.23
2019-04-22T08:55:29.595Z,1.80
2019-04-22T09:00:32.246Z,1.60
2019-04-22T09:06:01.534Z,1.50
2019-04-22T09:08:10.926Z,1.97
2019-04-22T09:10:37.466Z,2.23
2019-04-22T09:13:09.471Z,1.60
2019-04-22T09:15:45.483Z,1.70
2019-04-22T09:18:14.230Z,2.03
2019-04-22T09:20:55.669Z,2.17
2019-04-22T09:23:23.561Z,1.90
2019-04-22T09:25:48.830Z,2.07
2019-04-22T09:28:23.958Z,1.87
2019-04-22T09:31:01.813Z,1.57
2019-04-22T09:33:32.177Z,1.90
2019-04-22T09:36:12.424Z,2.03
2019-04-22T09:38:38.351Z,1.93
2019-04-22T09:41:10.324Z,1.57
2019-04-22T09:43:48.266Z,2.00
2019-04-22T09:46:15.155Z,1.80
2019-04-22T09:48:43.887Z,2.17
2019-04-22T09:51:12.033Z,1.97
2019-04-22T09:53:54.822Z,1.60
2019-04-22T09:56:25.440Z,1.83
2019-04-22T10:01:29.712Z,1.83
2019-04-22T10:14:05.589Z,1.87
2019-04-22T10:19:11.040Z,2.10
2019-04-22T10:21:50.027Z,2.13
2019-04-22T10:24:13.921Z,2.00
2019-04-22T10:26:43.906Z,2.67
2019-04-22T10:29:19.909Z,2.10
2019-04-22T10:34:11.576Z,1.97
2019-04-22T10:36:31.157Z,4.10
2019-04-22T10:39:02.282Z,2.87
2019-04-22T10:41:34.611Z,2.30
2019-04-22T10:44:05.504Z,1.67
2019-04-22T10:46:36.092Z,1.47
2019-04-22T10:49:06.738Z,2.30
2019-04-22T10:51:37.129Z,2.23
2019-04-22T10:54:07.493Z,2.00
2019-04-22T10:56:39.091Z,1.60
2019-04-22T10:59:10.852Z,1.80
2019-04-22T11:01:42.314Z,2.00
2019-04-22T11:04:13.366Z,2.47
2019-04-22T11:06:52.347Z,1.97
2019-04-22T11:09:16.349Z,2.43
2019-04-22T11:11:56.589Z,2.37
2019-04-22T11:14:19.109Z,2.23
2019-04-22T11:16:49.802Z,3.90
2019-04-22T11:19:21.362Z,1.90
2019-04-22T11:22:05.126Z,2.37
2019-04-22T11:24:24.821Z,2.23
2019-04-22T11:26:56.898Z,2.63
2019-04-22T11:29:27.819Z,3.20
2019-04-22T11:31:58.430Z,3.50
2019-04-22T11:34:29.095Z,2.23
2019-04-22T11:37:01.043Z,2.60
2019-04-22T11:39:36.454Z,3.13
2019-04-22T11:42:05.202Z,2.43
2019-04-22T11:44:37.104Z,2.53
2019-04-22T11:47:07.678Z,3.17
2019-04-22T11:49:39.777Z,2.33
2019-04-22T11:52:12.816Z,2.60
2019-04-22T11:54:43.225Z,2.90
2019-04-22T11:57:15.069Z,2.53
2019-04-22T11:59:47.002Z,3.13
2019-04-22T12:02:21.545Z,2.57
2019-04-22T12:04:51.975Z,2.50
2019-04-22T12:07:23.420Z,3.23
2019-04-22T12:09:55.436Z,2.60
2019-04-22T12:12:27.812Z,2.50
2019-04-22T12:14:58.705Z,3.10
2019-04-22T12:17:29.825Z,2.23
2019-04-22T12:20:03.266Z,2.67
2019-04-22T12:22:33.979Z,2.60
2019-04-22T12:25:08.655Z,2.63
2019-04-22T12:27:41.229Z,2.67
2019-04-22T12:30:14.790Z,2.63
2019-04-22T12:32:46.554Z,2.37
2019-04-22T12:35:17.743Z,2.70
2019-04-22T12:37:54.060Z,2.90
2019-04-22T12:40:30.125Z,2.83
2019-04-22T12:42:53.495Z,2.67
2019-04-22T12:45:24.589Z,2.50
2019-04-22T12:47:55.941Z,2.77
2019-04-22T12:50:33.177Z,3.00
2019-04-22T12:53:06.880Z,3.40
2019-04-22T12:55:32.420Z,2.33
2019-04-22T12:58:03.177Z,2.80
2019-04-22T13:00:34.329Z,2.57
2019-04-22T13:03:05.235Z,2.47
2019-04-22T13:05:37.566Z,2.80
2019-04-22T13:08:09.569Z,2.30
2019-04-22T13:10:49.537Z,2.33
2019-04-22T13:13:13.215Z,2.63
2019-04-22T13:15:44.615Z,2.13
2019-04-22T13:18:26.708Z,3.20
2019-04-22T13:20:48.631Z,3.17
2019-04-22T13:23:19.894Z,2.57
2019-04-22T13:25:50.685Z,3.00
2019-04-22T13:28:21.131Z,2.47
2019-04-22T13:30:52.723Z,2.70
2019-04-22T13:33:23.326Z,2.30
2019-04-22T13:35:54.343Z,2.37
2019-04-22T13:38:25.033Z,2.57
2019-04-22T13:41:07.110Z,2.20
2019-04-22T13:43:29.075Z,1.90
2019-04-22T13:45:59.532Z,2.83
2019-04-22T13:48:52.747Z,2.70
2019-04-22T13:51:30.275Z,2.93
2019-04-22T13:56:25.261Z,2.60
2019-04-22T13:58:53.073Z,2.23
2019-04-22T14:01:12.714Z,2.57
2019-04-22T14:03:54.647Z,2.10
2019-04-22T14:06:26.815Z,1.83
2019-04-22T14:08:58.761Z,2.53
2019-04-22T14:11:37.642Z,2.20
2019-04-22T14:14:02.871Z,1.83
2019-04-22T14:16:35.155Z,1.60
2019-04-22T14:19:05.987Z,1.60
2019-04-22T14:21:36.835Z,2.20
2019-04-22T14:24:11.755Z,2.00
2019-04-22T14:26:52.780Z,2.10
2019-04-22T14:29:11.705Z,2.53
2019-04-22T14:31:44.668Z,2.23
2019-04-22T14:34:16.581Z,3.10
2019-04-22T14:36:47.598Z,2.03
2019-04-22T14:39:19.815Z,3.13
2019-04-22T14:42:12.349Z,2.43
2019-04-22T14:45:15.241Z,2.50
2019-04-22T14:47:19.864Z,3.03
2019-04-22T14:49:48.164Z,2.70
2019-04-22T14:52:22.673Z,2.70
2019-04-22T14:54:47.121Z,2.53
2019-04-22T14:57:05.265Z,3.27
2019-04-22T14:59:35.892Z,3.60
2019-04-22T15:02:07.708Z,3.50
2019-04-22T15:04:39.284Z,3.17
2019-04-22T15:07:10.747Z,3.10
2019-04-22T15:09:42.019Z,2.37
2019-04-22T15:12:21.689Z,2.27
2019-04-22T15:14:45.806Z,3.00
2019-04-22T15:17:20.844Z,3.60
2019-04-22T15:20:03.499Z,1.60
2019-04-22T15:22:34.708Z,2.47
2019-04-22T15:25:08.220Z,3.87
2019-04-22T15:27:39.477Z,3.17
2019-04-22T15:30:11.575Z,2.30
2019-04-22T15:32:43.218Z,2.50
2019-04-22T15:35:13.667Z,2.30
2019-04-22T15:37:45.592Z,2.50
2019-04-22T15:40:16.668Z,2.63
2019-04-22T15:42:48.831Z,2.33
2019-04-22T15:45:20.545Z,5.00
2019-04-22T15:47:52.372Z,2.30
2019-04-22T15:50:24.557Z,2.57
2019-04-22T15:52:58.614Z,2.20
2019-04-22T15:55:27.198Z,2.23
2019-04-22T15:57:57.724Z,2.70
2019-04-22T16:00:39.547Z,3.30
2019-04-22T16:03:03.067Z,3.30
2019-04-22T16:05:34.092Z,3.40
2019-04-22T16:08:04.599Z,2.50
2019-04-22T16:10:35.663Z,3.30
2019-04-22T16:13:13.207Z,2.83
2019-04-22T16:15:40.351Z,2.87
2019-04-22T16:18:12.915Z,2.60
2019-04-22T16:20:43.955Z,2.57
2019-04-22T16:23:27.885Z,3.73
2019-04-22T16:25:59.246Z,3.40
2019-04-22T16:28:31.172Z,3.57
2019-04-22T16:31:01.739Z,3.03
2019-04-22T16:33:36.016Z,2.60
2019-04-22T16:36:04.847Z,3.50
2019-04-22T16:38:35.308Z,5.10
2019-04-22T16:41:06.571Z,3.90
2019-04-22T16:43:38.369Z,4.20
2019-04-22T16:46:09.762Z,4.43
2019-04-22T16:48:40.561Z,4.80
2019-04-22T16:51:11.884Z,4.87
2019-04-22T16:53:43.196Z,5.20
2019-04-22T16:56:15.032Z,4.80
2019-04-22T16:58:46.522Z,5.40
2019-04-22T17:01:28.488Z,5.60
2019-04-22T17:04:07.040Z,5.57
2019-04-22T17:06:39.447Z,5.00
2019-04-22T17:09:10.903Z,5.53
2019-04-22T17:11:41.471Z,6.63
2019-04-22T17:14:13.388Z,5.90
2019-04-22T17:16:44.348Z,6.03
2019-04-22T17:19:15.362Z,6.07
2019-04-22T17:21:45.750Z,5.83
2019-04-22T17:24:17.436Z,6.33
2019-04-22T17:26:48.399Z,6.77
2019-04-22T17:29:20.714Z,6.93
2019-04-22T17:32:01.697Z,6.80
2019-04-22T17:34:27.618Z,6.60
2019-04-22T17:36:59.306Z,6.67
2019-04-22T17:39:43.522Z,6.40
2019-04-22T17:42:28.206Z,6.63
2019-04-22T17:45:03.203Z,6.47
2019-04-22T17:47:32.933Z,6.63
2019-04-22T17:50:14.532Z,6.30
2019-04-22T17:52:44.252Z,8.77
2019-04-22T17:55:12.687Z,7.80
2019-04-22T17:57:41.003Z,7.80
2019-04-22T18:00:21.803Z,7.70
2019-04-22T18:02:46.014Z,6.73
2019-04-22T18:05:09.253Z,6.57
2019-04-22T18:07:54.537Z,6.90
2019-04-22T18:10:33.044Z,7.20
2019-04-22T18:13:08.789Z,6.50
2019-04-22T18:15:37.696Z,7.10
2019-04-22T18:18:14.879Z,6.80
2019-04-22T18:20:38.133Z,6.40
2019-04-22T18:23:00.033Z,6.43
2019-04-22T18:25:48.416Z,6.70
2019-04-22T18:28:18.798Z,7.43
2019-04-22T18:30:41.198Z,7.00
2019-04-22T18:33:22.522Z,7.07
2019-04-22T18:35:48.826Z,6.47
2019-04-22T18:38:33.167Z,6.53
2019-04-22T18:40:55.978Z,6.60
2019-04-22T18:43:40.477Z,6.83
2019-04-22T18:46:06.492Z,6.67
2019-04-22T18:48:34.995Z,19.70
2019-04-22T18:51:18.516Z,6.57
2019-04-22T18:53:56.935Z,7.53
2019-04-22T18:56:25.425Z,6.30
2019-04-22T18:58:54.842Z,6.67
2019-04-22T19:01:15.652Z,7.27
2019-04-22T19:03:56.163Z,10.90
2019-04-22T19:06:56.348Z,9.60
2019-04-22T19:09:15.356Z,6.67
2019-04-22T19:11:51.922Z,8.90
2019-04-22T19:14:18.677Z,7.70
2019-04-22T19:16:59.333Z,7.20
2019-04-22T19:21:54.664Z,6.33
2019-04-22T19:24:22.806Z,6.90
2019-04-22T19:26:59.097Z,5.83
2019-04-22T19:29:34.554Z,6.37
2019-04-22T19:32:01.830Z,6.20
2019-04-22T19:34:36.788Z,6.40
2019-04-22T19:37:09.531Z,5.53
2019-04-22T19:39:41.158Z,6.27
2019-04-22T19:42:25.556Z,5.43
2019-04-22T19:44:43.770Z,5.67
2019-04-22T19:49:58.447Z,6.23
2019-04-22T19:54:58.352Z,6.33
2019-04-22T19:57:26.391Z,6.07
2019-04-22T20:00:05.439Z,6.33
2019-04-22T20:02:43.955Z,6.30
2019-04-22T20:05:24.600Z,6.00
2019-04-22T20:07:43.134Z,5.30
2019-04-22T20:10:20.791Z,5.70
2019-04-22T20:12:50.056Z,5.90
2019-04-22T20:15:22.676Z,5.83
2019-04-22T20:18:21.791Z,5.90
2019-04-22T20:20:31.906Z,6.17
2019-04-22T20:22:57.649Z,5.33
2019-04-22T20:25:31.364Z,5.80
2019-04-22T20:28:14.805Z,6.80
2019-04-22T20:30:39.669Z,7.07
2019-04-22T20:33:10.762Z,5.87
2019-04-22T20:35:43.971Z,6.13
2019-04-22T20:38:21.713Z,5.60
2019-04-22T20:40:49.391Z,5.53
2019-04-22T20:43:29.220Z,5.20
2019-04-22T20:45:55.892Z,5.30
2019-04-22T20:48:15.859Z,5.37
2019-04-22T20:51:02.592Z,5.80
2019-04-22T20:53:36.691Z,5.90
2019-04-22T20:56:05.580Z,5.40
2019-04-22T20:58:33.006Z,5.90
2019-04-22T21:00:59.859Z,5.93
2019-04-22T21:03:29.397Z,6.57
2019-04-22T21:06:06.858Z,6.17
2019-04-22T21:08:42.333Z,5.53
2019-04-22T21:11:07.862Z,6.00
2019-04-22T21:13:46.709Z,6.03
2019-04-22T21:16:21.718Z,5.70
2019-04-22T21:18:46.109Z,6.50
2019-04-22T21:21:29.587Z,6.27
2019-04-22T21:23:51.443Z,5.77
2019-04-22T21:26:29.356Z,6.13
2019-04-22T21:28:59.475Z,5.83
2019-04-22T21:31:52.653Z,6.40
2019-04-22T21:34:06.798Z,6.53
2019-04-22T21:36:41.470Z,6.43
2019-04-22T21:39:09.653Z,6.60
2019-04-22T21:41:40.263Z,6.30
2019-04-22T21:44:14.041Z,6.63
2019-04-22T21:46:51.209Z,5.90
2019-04-22T21:49:25.010Z,6.50
2019-04-22T21:51:54.054Z,7.17
2019-04-22T21:54:28.627Z,6.53
2019-04-22T21:57:09.210Z,6.47
2019-04-22T21:59:30.089Z,6.60
2019-04-22T22:02:11.842Z,6.63
2019-04-22T22:04:33.739Z,7.00
2019-04-22T22:06:57.711Z,7.30
2019-04-22T22:09:43.991Z,8.33
2019-04-22T22:12:11.583Z,6.60
2019-04-22T22:14:45.991Z,7.20
2019-04-22T22:17:18.693Z,6.10
2019-04-22T22:19:48.276Z,7.13
2019-04-22T22:22:42.521Z,7.00
2019-04-22T22:25:00.070Z,7.20
2019-04-22T22:27:30.149Z,6.30
2019-04-22T22:32:35.052Z,6.40
2019-04-22T22:35:03.142Z,6.67
2019-04-22T22:37:27.362Z,7.33
2019-04-22T22:39:58.638Z,6.40
2019-04-22T22:42:29.730Z,6.50
2019-04-22T22:45:06.453Z,6.37
2019-04-22T22:47:47.139Z,6.30
2019-04-22T22:50:17.231Z,7.00
2019-04-22T22:53:11.234Z,7.47
2019-04-22T22:55:21.684Z,7.70
2019-04-22T22:57:58.294Z,7.10
2019-04-22T23:00:28.784Z,7.13
2019-04-22T23:03:23.300Z,7.07
2019-04-22T23:05:37.701Z,7.43
2019-04-22T23:08:14.901Z,7.00
2019-04-22T23:10:52.390Z,7.10
2019-04-22T23:13:14.703Z,7.57
2019-04-22T23:15:41.894Z,6.90
2019-04-22T23:17:56.079Z,7.80
2019-04-22T23:20:32.459Z,6.87
2019-04-22T23:23:22.005Z,7.37
2019-04-22T23:25:59.686Z,6.92
2019-04-22T23:28:38.745Z,7.57
2019-04-22T23:31:09.549Z,8.27
2019-04-22T23:33:46.344Z,7.37
2019-04-22T23:36:25.109Z,7.83
2019-04-22T23:39:13.963Z,8.40
2019-04-22T23:41:45.797Z,7.73
2019-04-22T23:46:41.098Z,7.73
2019-04-22T23:49:20.499Z,8.40
2019-04-22T23:52:02.749Z,8.43
2019-04-22T23:54:27.193Z,8.10
2019-04-22T23:56:52.522Z,8.97
2019-04-22T23:59:41.482Z,8.90
